createdAt,value
2019-01-31T00:01:06.914Z,79.92
2019-01-31T00:06:07.898Z,80.19
2019-01-31T00:11:06.817Z,80.18
2019-01-31T00:16:06.967Z,80.18
2019-01-31T00:21:07.216Z,80.28
2019-01-31T00:25:06.588Z,79.94
2019-01-31T00:30:07.986Z,79.32
2019-01-31T00:35:06.950Z,78.96
2019-01-31T00:40:06.394Z,79.1
2019-01-31T00:45:08.748Z,79.25
2019-01-31T00:50:06.375Z,79.76
2019-01-31T00:54:06.838Z,80
2019-01-31T00:59:07.802Z,80.08
2019-01-31T01:04:07.123Z,80.32
2019-01-31T01:09:08.442Z,80.35
2019-01-31T01:14:07.126Z,80.7
2019-01-31T01:18:06.894Z,80.77
2019-01-31T01:23:06.659Z,80.76
2019-01-31T01:27:07.431Z,80.7
2019-01-31T01:31:07.068Z,80.95
2019-01-31T01:36:06.650Z,80.92
2019-01-31T01:41:07.861Z,81.22
2019-01-31T01:46:06.352Z,81.42
2019-01-31T01:51:07.254Z,81.49
2019-01-31T01:56:06.855Z,81.5
2019-01-31T02:00:08.807Z,81.29
2019-01-31T02:01:06.330Z,81.29
2019-01-31T02:05:10.320Z,81.45
2019-01-31T02:10:07.130Z,81.85
2019-01-31T02:15:08.320Z,82.05
2019-01-31T02:20:06.632Z,81.85
2019-01-31T02:24:07.695Z,82.03
2019-01-31T02:29:06.408Z,82.44
2019-01-31T02:34:07.350Z,82.99
2019-01-31T02:38:07.542Z,83.02
2019-01-31T02:43:07.013Z,82.91
2019-01-31T02:48:06.713Z,82.6
2019-01-31T02:52:06.907Z,83.15
2019-01-31T02:57:07.946Z,83.25
2019-01-31T03:01:07.245Z,83.55
2019-01-31T03:06:07.295Z,83.97
2019-01-31T03:10:06.763Z,83.9
2019-01-31T03:15:07.826Z,83.41
2019-01-31T03:19:07.311Z,83.08
2019-01-31T03:24:07.061Z,82.97
2019-01-31T03:28:06.670Z,83.24
2019-01-31T03:33:06.852Z,83.34
2019-01-31T03:37:06.401Z,83.14
2019-01-31T03:42:07.209Z,83.06
2019-01-31T03:46:07.900Z,83.01
2019-01-31T03:50:08.199Z,83.07
2019-01-31T03:55:07.230Z,83.41
2019-01-31T03:59:06.732Z,83.91
2019-01-31T04:03:06.776Z,84.03
2019-01-31T04:07:06.383Z,83.9
2019-01-31T04:11:06.255Z,83.61
2019-01-31T04:15:08.767Z,83.66
2019-01-31T04:16:06.310Z,83.66
2019-01-31T04:20:06.864Z,83.68
2019-01-31T04:24:06.289Z,84.05
2019-01-31T04:28:06.824Z,84.3
2019-01-31T04:33:06.382Z,84.3
2019-01-31T04:37:06.833Z,84.5
2019-01-31T04:41:06.777Z,84.7
2019-01-31T04:45:07.688Z,84.72
2019-01-31T04:49:06.779Z,84.95
2019-01-31T04:53:06.294Z,85.18
2019-01-31T04:58:07.472Z,85.26
2019-01-31T05:02:07.140Z,85.35
2019-01-31T05:06:06.607Z,85.63
2019-01-31T05:10:06.630Z,85.67
2019-01-31T05:14:07.132Z,85.59
2019-01-31T05:18:07.288Z,85.9
2019-01-31T05:22:06.847Z,86.16
2019-01-31T05:26:07.001Z,86.35
2019-01-31T05:30:09.492Z,86.53
2019-01-31T05:34:07.194Z,86.57
2019-01-31T05:38:06.300Z,86.46
2019-01-31T05:42:06.578Z,86.33
2019-01-31T05:46:07.775Z,86.47
2019-01-31T05:50:07.039Z,86.59
2019-01-31T05:54:07.198Z,86.7
2019-01-31T05:58:06.369Z,86.96
2019-01-31T06:02:06.574Z,87.31
2019-01-31T06:06:07.069Z,87.73
2019-01-31T06:09:07.133Z,88.12
2019-01-31T06:13:07.360Z,88.21
2019-01-31T06:17:07.395Z,87.97
2019-01-31T06:21:06.631Z,87.73
2019-01-31T06:24:06.351Z,87.59
2019-01-31T06:28:07.619Z,87.57
2019-01-31T06:32:06.919Z,87.65
2019-01-31T06:36:07.085Z,87.69
2019-01-31T06:40:06.984Z,87.81
2019-01-31T06:43:06.699Z,87.7
2019-01-31T06:47:07.292Z,87.66
2019-01-31T06:51:07.405Z,87.71
2019-01-31T06:54:08.830Z,87.8
2019-01-31T06:58:06.895Z,87.57
2019-01-31T07:01:07.200Z,87.26
2019-01-31T07:02:07.163Z,87.26
2019-01-31T07:05:06.854Z,87.18
2019-01-31T07:09:07.363Z,87.3
2019-01-31T07:12:07.082Z,87.75
2019-01-31T07:16:07.577Z,88.1
2019-01-31T07:19:07.248Z,88.62
2019-01-31T07:23:06.407Z,88.86
2019-01-31T07:26:07.078Z,89.14
2019-01-31T07:29:07.006Z,88.98
2019-01-31T07:33:06.301Z,88.23
2019-01-31T07:36:06.989Z,87.34
2019-01-31T07:39:06.947Z,86.56
2019-01-31T07:43:07.139Z,86.17
2019-01-31T07:46:07.580Z,86.15
2019-01-31T07:49:07.243Z,86.33
2019-01-31T07:53:07.415Z,86.24
2019-01-31T07:56:07.115Z,85.95
2019-01-31T07:59:06.788Z,85.57
2019-01-31T08:03:06.339Z,85.17
2019-01-31T08:06:07.027Z,84.27
2019-01-31T08:09:07.005Z,83.64
2019-01-31T08:12:06.605Z,83.95
2019-01-31T08:15:08.180Z,83.88
2019-01-31T08:19:07.393Z,83.4
2019-01-31T08:22:07.139Z,82.31
2019-01-31T08:25:07.763Z,80.93
2019-01-31T08:28:07.542Z,78.11
2019-01-31T08:31:07.858Z,75.37
2019-01-31T08:35:07.014Z,73.85
2019-01-31T08:38:06.631Z,72.96
2019-01-31T08:41:06.845Z,71.14
2019-01-31T08:44:06.584Z,71.1
2019-01-31T08:48:06.658Z,70.53
2019-01-31T08:51:06.296Z,68.74
2019-01-31T08:54:07.005Z,69.3
2019-01-31T08:57:06.717Z,70.15
2019-01-31T09:00:08.717Z,69.69
2019-01-31T09:01:06.938Z,69.69
2019-01-31T09:04:07.594Z,69.54
2019-01-31T09:07:07.276Z,68.41
2019-01-31T09:10:07.476Z,67.44
2019-01-31T09:13:07.183Z,66.87
2019-01-31T09:16:07.840Z,66.9
2019-01-31T09:17:07.559Z,66.9
2019-01-31T09:20:07.284Z,67.12
2019-01-31T09:23:06.923Z,66.62
2019-01-31T09:26:06.575Z,66.03
2019-01-31T09:29:07.253Z,66.4
2019-01-31T09:32:07.122Z,65.74
2019-01-31T09:35:06.769Z,65.18
2019-01-31T09:38:07.478Z,65.35
